General Lucio Blanco International Airport
MMRX : now visible

Airfield :











YOU CAN JOIN US ON...

 
LOGIN :

Register | Disclaimer

   EN    FR    IT 

 









Legend :    VFR   Marginal VFR   IFR   Intensive IFR   Very Intensive IFR
Visi :
Ceiling :
>= 8 km
>= 3000ft
5 to 8 km
1000 to 3000 ft
1500m to 5 km
500 to 1000 ft
800 to 1500m
200 to 500 ft
< 800m
< 200 ft
Symbols :   Thunderstorms  Fog  Heavy snow  Heavy precipitations  Wind > 20 kt







- Airport Elevation : 139 ft
- IATA code : REX


MMRX - General Lucio Blanco International

CURRENT METAR :
  • 202044Z 06012KT 3SM BR DZ OVC012 19/17 A3014 RMK SLP199 57020 973 8/5// DZB33

EXPIRED METARs :
  • 201942Z 06010KT 4SM OVC012 21/19 A3015 RMK 8/5// HZY BINOVC
  • 201848Z 08010KT 3SM BR HZ OVC010 19/17 A3017 RMK 60065 8/5// -DZE30

TAF TAF MMRX
Valid from the 20 at 18:00 until the 21 at 18:00 UTC


201726Z 2018/2118 02005KT 1SM BR VV006
FM201900 08006KT 3SM BR HZ BKN006 OVC015
FM202100 09012KT 5SM HZ BKN010 OVC040
FM210200 09006KT 6SM HZ BKN020 OVC060
BECMG 2115/2116 09008KT
MMFR FIR / North America



MET'MAP, your aeronautical weather chart ! - Copyright ORBIFLY December 2007 - Disclaimer

ORBIFLY MET'MAP TEAM :

Programming & Development : Alexandra Zaïnal
Concept & Development : Baudouin d'Aumeries
Co-Development & Prog : Marc-Olivier Méhu
Technical & hardware support : Manuel Goepfert

Contact : metmap@orbifly.com




SOURCES & CREDITS :

   NOAA       Earth
Advisory